Latest Coastal Weather Observations for Dennes Point

IDT60701

Issued at 4:05 pm EDT Wednesday 22 October 2014 (issued every 10 minutes, with the page automatically refreshed every 10 minutes)

About coastal observations | Map of coastal stations | Coastal observations for TAS | Marine services | Other Formats
Station Details ID: 094255 Name: DENNES POINT Lat: -43.06 Lon: 147.36 Height: 5.67 m
Data from the previous 72 hours. | See also: Recent months at Dennes Point
Date/Time
EDT
Temp

°C
Wind Pressure Rain
since 9am
mm
Weather Cloud Vis
km
Sea
Height
m
Swell
Dir
 
Speed
knots
Gust
knots
hPa Trend Height
m
Period
s
Dir
22/04:00pm 19.3 E 4 7 1014.0 - 0.0 - - - - - - -
22/03:30pm 19.8 SE 8 12 1013.8 - 0.0 - - - - - - -
22/03:00pm 22.3 ESE 6 7 1013.9 - 0.0 - - - - - - -
22/02:30pm 20.1 ESE 6 8 1014.0 - 0.0 - - - - - - -
22/02:00pm 19.7 ESE 7 9 1014.2 - 0.0 - - - - - - -
22/01:30pm 20.5 ESE 8 10 1014.7 - 0.0 - - - - - - -
22/01:00pm 19.9 NNE 2 3 1015.0 - 0.0 - - - - - - -
22/12:30pm 18.6 NNE 3 4 1015.6 - 0.0 - - - - - - -
22/12:00pm 17.5 N 7 8 1016.0 - 0.0 - - - - - - -
22/11:30am 16.7 N 8 10 1016.7 - 0.0 - - - - - - -
22/11:00am 16.1 N 11 14 1017.1 - 0.0 - - - - - - -
22/10:30am 15.4 N 12 16 1017.6 - 0.0 - - - - - - -
22/10:00am 15.1 NNE 9 11 1018.1 - 0.0 - - - - - - -
22/09:30am 14.0 N 9 13 1018.5 - 0.0 - - - - - - -
22/09:00am 13.4 N 11 14 1018.5 - 0.0 - - - - - - -
22/08:30am 12.9 N 12 14 1018.8 - 0.0 - - - - - - -
22/08:00am 11.5 WSW 2 4 1019.3 - 0.0 - - - - - - -
22/07:30am 11.9 N 3 8 1019.1 - 0.0 - - - - - - -
22/07:00am 11.6 NNE 3 6 1019.3 - 0.0 - - - - - - -
22/06:30am 9.8 E 1 4 1019.6 - 0.0 - - - - - - -
22/06:00am 12.2 N 17 21 1019.6 - 0.0 - - - - - - -
22/05:43am 12.3 N 17 21 1019.7 - 0.0 - - - - - - -
22/05:30am 11.5 NNW 5 10 1019.9 - 0.0 - - - - - - -
22/05:00am 11.9 N 9 15 1020.1 - 0.0 - - - - - - -
22/04:30am 12.3 N 16 21 1020.6 - 0.0 - - - - - - -
22/04:00am 12.5 N 19 23 1020.8 - 0.0 - - - - - - -
22/03:30am 12.6 N 17 23 1021.4 - 0.0 - - - - - - -
22/03:00am 12.7 NNE 16 19 1022.1 - 0.0 - - - - - - -
22/02:30am 12.9 N 14 17 1022.7 - 0.0 - - - - - - -
22/02:00am 12.8 N 11 15 1023.1 - 0.0 - - - - - - -
22/01:30am 13.2 N 12 14 1023.4 - 0.0 - - - - - - -
22/01:00am 12.8 NNW 5 7 1024.0 - 0.0 - - - - - - -
22/12:30am 13.1 N 6 8 1024.3 - 0.0 - - - - - - -
22/12:00am 12.0 NNW 1 3 1024.8 - 0.0 - - - - - - -
 
Date/Time
EDT
Temp

°C
Wind Pressure Rain
since 9am
mm
Weather Cloud Vis
km
Sea
Height
m
Swell
Dir
 
Speed
knots
Gust
knots
hPa Trend Height
m
Period
s
Dir
21/11:30pm 12.9 NNE 8 10 1025.2 - 0.0 - - - - - - -
21/11:00pm 12.9 NNE 7 10 1025.5 - 0.0 - - - - - - -
21/10:30pm 12.8 NE 8 10 1025.9 - 0.0 - - - - - - -
21/10:00pm 13.1 NE 10 12 1026.3 - 0.0 - - - - - - -
21/09:30pm 13.0 NE 7 9 1026.8 - 0.0 - - - - - - -
21/09:00pm 13.1 NE 4 7 1026.9 - 0.0 - - - - - - -
21/08:30pm 12.8 ESE 3 5 1026.8 - 0.0 - - - - - - -
21/08:00pm 13.4 ENE 6 7 1026.9 - 0.0 - - - - - - -
21/07:30pm 13.5 E 5 6 1027.1 - 0.0 - - - - - - -
21/07:00pm 14.2 E 8 11 1027.3 - 0.0 - - - - - - -
21/06:30pm 14.7 ENE 14 17 1027.2 - 0.0 - - - - - - -
21/06:00pm 14.9 ENE 17 19 1027.4 - 0.0 - - - - - - -
21/05:30pm 15.2 ENE 17 20 1027.7 - 0.0 - - - - - - -
21/05:00pm 15.5 E 17 20 1027.7 - 0.0 - - - - - - -
21/04:30pm 15.8 E 17 19 1027.8 - 0.0 - - - - - - -
21/04:00pm 16.2 ENE 15 18 1028.5 - 0.0 - - - - - - -
21/03:30pm 16.3 E 13 16 1028.9 - 0.0 - - - - - - -
21/03:00pm 16.3 E 14 16 1029.2 - 0.0 - - - - - - -
21/02:30pm 16.2 E 14 16 1029.9 - 0.0 - - - - - - -
21/02:00pm 16.3 E 14 16 1030.4 - 0.0 - - - - - - -
21/01:30pm 16.1 E 12 14 1030.9 - 0.0 - - - - - - -
21/01:00pm 15.9 E 9 11 1031.2 - 0.0 - - - - - - -
21/12:30pm 15.7 E 4 5 1031.7 - 0.0 - - - - - - -
21/12:00pm 15.3 NE 5 6 1032.2 - 0.0 - - - - - - -
21/11:30am 14.1 NNE 6 8 1032.4 - 0.0 - - - - - - -
21/11:00am 13.8 NNE 10 12 1032.9 - 0.0 - - - - - - -
21/10:30am 12.8 N 4 6 1033.2 - 0.0 - - - - - - -
21/10:00am 12.3 N 3 4 1033.4 - 0.0 - - - - - - -
21/09:30am 11.1 NNE 5 6 1033.6 - 0.0 - - - - - - -
21/09:00am 10.7 NNE 1 3 1033.8 - 0.0 - - - - - - -
21/08:30am 9.6 W 2 3 1033.8 - 0.0 - - - - - - -
21/08:00am 9.1 SW 3 4 1033.8 - 0.0 - - - - - - -
21/07:30am 8.8 N 6 10 1033.6 - 0.0 - - - - - - -
21/07:00am 8.2 NNW 3 4 1033.6 - 0.0 - - - - - - -
21/06:30am 7.1 NW 1 4 1033.3 - 0.0 - - - - - - -
21/06:00am 6.2 S 3 4 1033.1 - 0.0 - - - - - - -
21/05:30am 8.7 N 6 9 1033.0 - 0.0 - - - - - - -
21/05:00am 9.1 N 6 9 1033.0 - 0.0 - - - - - - -
21/04:30am 9.5 N 6 8 1032.9 - 0.0 - - - - - - -
21/04:00am 9.5 NNE 7 9 1033.0 - 0.0 - - - - - - -
21/03:30am 9.6 NNE 9 11 1033.0 - 0.0 - - - - - - -
21/03:00am 9.8 NNE 9 10 1033.3 - 0.0 - - - - - - -
21/02:30am 10.1 NNE 9 12 1033.3 - 0.0 - - - - - - -
21/02:00am 10.2 NNE 8 10 1033.6 - 0.0 - - - - - - -
21/01:30am 10.3 NNE 9 12 1033.8 - 0.0 - - - - - - -
21/01:00am 10.4 NNE 9 11 1034.0 - 0.0 - - - - - - -
21/12:30am 10.6 NNE 8 10 1034.4 - 0.0 - - - - - - -
21/12:00am 10.5 NNE 8 9 1034.7 - 0.0 - - - - - - -
 
Date/Time
EDT
Temp

°C
Wind Pressure Rain
since 9am
mm
Weather Cloud Vis
km
Sea
Height
m
Swell
Dir
 
Speed
knots
Gust
knots
hPa Trend Height
m
Period
s
Dir
20/11:30pm 10.5 NE 5 7 1034.9 - 0.0 - - - - - - -
20/11:00pm 9.8 CALM 0 0 1035.3 - 0.0 - - - - - - -
20/10:30pm 9.6 S 1 2 1035.5 - 0.0 - - - - - - -
20/10:00pm 9.7 S 1 2 1035.5 - 0.0 - - - - - - -
20/09:30pm 9.7 S 1 3 1035.6 - 0.0 - - - - - - -
20/09:00pm 9.8 CALM 0 1 1035.4 - 0.0 - - - - - - -
20/08:30pm 9.9 SSE 3 4 1035.3 - 0.0 - - - - - - -
20/08:00pm 9.9 S 1 3 1034.9 - 0.0 - - - - - - -
20/07:30pm 10.0 SSE 3 5 1034.4 - 0.0 - - - - - - -
20/07:00pm 10.4 SSE 5 8 1034.3 - 0.0 - - - - - - -
20/06:30pm 10.6 SE 5 8 1034.1 - 0.0 - - - - - - -
20/06:00pm 10.9 ESE 9 12 1033.9 - 0.0 - - - - - - -
20/05:30pm 11.3 ESE 9 12 1034.0 - 0.0 - - - - - - -
20/05:00pm 12.5 ESE 9 12 1033.8 - 0.0 - - - - - - -
20/04:30pm 12.4 ESE 9 12 1033.8 - 0.0 - - - - - - -
20/04:00pm 13.1 ESE 10 13 1033.8 - 0.0 - - - - - - -
20/03:30pm 11.9 E 10 12 1033.7 - 0.0 - - - - - - -
20/03:00pm 12.0 ESE 11 13 1033.8 - 0.0 - - - - - - -
20/02:30pm 13.0 ESE 11 14 1033.8 - 0.0 - - - - - - -
20/02:00pm 13.5 ESE 11 13 1033.9 - 0.0 - - - - - - -
20/01:30pm 13.2 E 4 9 1033.8 - 0.0 - - - - - - -
20/01:00pm 13.2 W 5 9 1034.0 - 0.0 - - - - - - -
20/12:30pm 12.9 WSW 6 10 1034.2 - 0.0 - - - - - - -
20/12:00pm 12.8 SW 3 7 1034.3 - 0.0 - - - - - - -
20/11:30am 12.1 WSW 6 7 1034.3 - 0.0 - - - - - - -
20/11:00am 12.3 WSW 10 14 1034.4 - 0.0 - - - - - - -
20/10:30am 12.4 SW 9 13 1034.3 - 0.0 - - - - - - -
20/10:00am 10.3 SW 8 12 1034.3 - 0.0 - - - - - - -
20/09:30am 10.5 SW 8 15 1034.0 - 0.0 - - - - - - -
20/09:00am 9.7 SW 8 12 1033.7 - 1.4 - - - - - - -
20/08:30am 10.0 W 4 5 1033.3 - 1.4 - - - - - - -
20/08:00am 9.3 WNW 3 5 1032.9 - 1.4 - - - - - - -
20/07:30am 8.8 W 7 10 1032.5 - 1.4 - - - - - - -
20/07:00am 8.2 WSW 8 11 1032.1 - 1.4 - - - - - - -
20/06:30am 7.4 S 4 8 1032.0 - 1.4 - - - - - - -
20/06:00am 7.2 W 5 7 1031.3 - 1.4 - - - - - - -
20/05:30am 6.4 W 8 9 1030.7 - 1.4 - - - - - - -
20/05:00am 6.9 W 10 12 1030.4 - 1.4 - - - - - - -
20/04:30am 6.8 W 9 11 1030.1 - 1.4 - - - - - - -
20/04:00am 7.4 WSW 10 14 1029.8 - 1.4 - - - - - - -
20/03:30am 7.3 WSW 13 18 1029.2 - 1.4 - - - - - - -
20/03:00am 7.3 WSW 12 15 1028.9 - 1.4 - - - - - - -
20/02:30am 7.4 W 12 17 1028.6 - 1.4 - - - - - - -
20/02:00am 7.6 SW 12 17 1028.2 - 1.4 - - - - - - -
20/01:30am 7.2 WSW 10 13 1028.2 - 1.4 - - - - - - -
20/01:00am 7.1 WSW 10 13 1027.9 - 1.4 - - - - - - -
20/12:30am 7.2 WSW 11 14 1027.7 - 1.4 - - - - - - -
20/12:00am 7.1 WSW 10 13 1027.2 - 1.4 - - - - - - -
 
Date/Time
EDT
Temp

°C
Wind Pressure Rain
since 9am
mm
Weather Cloud Vis
km
Sea
Height
m
Swell
Dir
 
Speed
knots
Gust
knots
hPa Trend Height
m
Period
s
Dir
19/11:30pm 6.9 SW 8 12 1026.8 - 1.4 - - - - - - -
19/11:00pm 7.1 SW 13 23 1026.3 - 1.4 - - - - - - -
19/10:30pm 8.2 WSW 15 18 1025.4 - 1.4 - - - - - - -
19/10:00pm 8.3 WSW 14 20 1024.9 - 1.4 - - - - - - -
19/09:30pm 8.6 SW 10 18 1024.6 - 1.4 - - - - - - -
19/09:00pm 8.6 WSW 15 19 1023.7 - 1.4 - - - - - - -
19/08:30pm 8.3 SSW 10 17 1023.2 - 1.4 - - - - - - -
19/08:00pm 8.5 SSW 9 15 1022.3 - 1.4 - - - - - - -
19/07:30pm 8.8 SSW 9 14 1021.2 - 1.4 - - - - - - -
19/07:00pm 8.5 SSW 9 13 1020.6 - 1.2 - - - - - - -
19/06:30pm 9.5 SW 10 14 1019.6 - 0.0 - - - - - - -
19/06:00pm 10.8 WSW 12 18 1018.6 - 0.0 - - - - - - -
19/05:30pm 11.1 W 9 12 1018.3 - 0.0 - - - - - - -
19/05:00pm 11.2 W 7 9 1018.3 - 0.0 - - - - - - -
19/04:30pm 11.2 SW 9 13 1017.7 - 0.0 - - - - - - -

Other Formats:

Comma delimited format used in spreadsheet applications
http://www.bom.gov.au/fwo/IDT60701/IDT60701.94988.axf

JavaScript Object Notation format (JSON) in row-major order
http://www.bom.gov.au/fwo/IDT60701/IDT60701.94988.json